Time;durP1;ratioP1;P1;durP2;ratioP2;P2;SDS_P1;SDS_P2;PMS_P1;PMS_P2;Temp;Humidity;BMP_temperature;BMP_pressure;BME280_temperature;BME280_humidity;BME280_pressure;Samples;Min_cycle;Max_cycle;Signal;HPM_P1;HPM_P2
2024/02/27 00:00:50;;;;;;;5.18;4.68;;;10.10;99.90;;;;;;4929916;29;20224;-75
2024/02/27 00:03:16;;;;;;;6.40;5.80;;;10.10;99.90;;;;;;4898255;29;20182;-75
2024/02/27 00:05:42;;;;;;;6.70;6.00;;;10.10;99.90;;;;;;4913970;29;20659;-75
2024/02/27 00:08:08;;;;;;;7.43;6.53;;;10.00;99.90;;;;;;4929939;29;20185;-75
2024/02/27 00:10:34;;;;;;;7.97;7.10;;;10.00;99.90;;;;;;4909808;29;20214;-75
2024/02/27 00:13:01;;;;;;;6.80;5.77;;;10.10;99.90;;;;;;4910044;29;20599;-75
2024/02/27 00:15:27;;;;;;;7.22;6.13;;;10.00;99.90;;;;;;4929385;29;20594;-75
2024/02/27 00:17:52;;;;;;;6.90;6.23;;;10.00;99.90;;;;;;4913936;29;20672;-76
2024/02/27 00:20:18;;;;;;;6.70;6.00;;;10.00;99.90;;;;;;4913323;29;20198;-75
2024/02/27 00:22:44;;;;;;;6.93;5.80;;;10.00;99.90;;;;;;4898473;29;20188;-75
2024/02/27 00:25:10;;;;;;;7.03;6.23;;;9.90;99.90;;;;;;4929832;29;20282;-74
2024/02/27 00:27:36;;;;;;;8.35;7.55;;;10.00;99.90;;;;;;4913414;29;20609;-74
2024/02/27 00:30:02;;;;;;;9.80;8.80;;;9.90;99.90;;;;;;4913702;29;20221;-74
2024/02/27 00:32:28;;;;;;;8.40;6.85;;;9.90;99.90;;;;;;4929198;29;20973;-75
2024/02/27 00:34:56;;;;;;;8.55;7.20;;;9.90;99.90;;;;;;4929712;29;20201;-76
2024/02/27 00:37:21;;;;;;;8.93;8.07;;;9.90;99.90;;;;;;4895745;29;20170;-76
2024/02/27 00:39:47;;;;;;;7.63;6.93;;;9.80;99.90;;;;;;4923671;29;20637;-76
2024/02/27 00:42:13;;;;;;;7.47;6.22;;;9.80;99.90;;;;;;4929548;29;20605;-74
2024/02/27 00:44:40;;;;;;;8.57;7.67;;;9.80;99.90;;;;;;4929742;29;20189;-74
2024/02/27 00:47:07;;;;;;;9.52;8.50;;;9.70;99.90;;;;;;4913375;29;20188;-74
2024/02/27 00:49:33;;;;;;;10.00;9.00;;;9.70;99.90;;;;;;4913994;29;20553;-74
2024/02/27 00:51:59;;;;;;;7.40;6.70;;;9.70;99.90;;;;;;4929586;29;20217;-75
2024/02/27 00:54:24;;;;;;;10.90;8.37;;;9.70;99.90;;;;;;4930205;29;20232;-75
2024/02/27 00:56:53;;;;;;;10.10;8.20;;;9.60;99.90;;;;;;4930956;29;20241;-75
2024/02/27 00:59:19;;;;;;;10.43;9.15;;;9.60;99.90;;;;;;4899963;29;20258;-75
2024/02/27 01:01:52;;;;;;;9.95;8.95;;;9.60;99.90;;;;;;4937197;29;20201;-74
2024/02/27 01:04:18;;;;;;;9.55;8.63;;;9.60;99.90;;;;;;4939440;29;20288;-74
2024/02/27 01:06:44;;;;;;;9.57;8.57;;;9.60;99.90;;;;;;4910526;29;20205;-74
2024/02/27 01:09:11;;;;;;;9.85;8.88;;;9.60;99.90;;;;;;4926628;29;20586;-74
2024/02/27 01:11:36;;;;;;;9.50;7.47;;;9.60;99.90;;;;;;4907154;29;20241;-74
2024/02/27 01:14:02;;;;;;;8.43;7.63;;;9.50;99.90;;;;;;4913936;29;20184;-74
2024/02/27 01:16:28;;;;;;;10.93;9.87;;;9.50;99.90;;;;;;4905183;29;20178;-74
2024/02/27 01:18:54;;;;;;;9.97;9.07;;;9.60;99.90;;;;;;4908809;29;20645;-74
2024/02/27 01:21:19;;;;;;;10.33;9.33;;;9.50;99.90;;;;;;4911146;29;20209;-74
2024/02/27 01:23:46;;;;;;;9.77;8.23;;;9.50;99.90;;;;;;4913276;29;20209;-74
2024/02/27 01:26:12;;;;;;;9.30;8.15;;;9.50;99.90;;;;;;4905127;29;20196;-74
2024/02/27 01:28:37;;;;;;;9.68;8.55;;;9.60;99.90;;;;;;4913339;29;20284;-74
2024/02/27 01:31:05;;;;;;;8.17;7.37;;;9.60;99.90;;;;;;4912873;29;20309;-74
2024/02/27 01:33:35;;;;;;;11.10;9.73;;;9.60;99.90;;;;;;4915361;29;20577;-75
2024/02/27 01:36:00;;;;;;;10.23;8.87;;;9.60;99.90;;;;;;4932530;29;20642;-74
2024/02/27 01:38:38;;;;;;;10.50;9.55;;;9.60;99.90;;;;;;4902752;29;20268;-75
2024/02/27 01:41:04;;;;;;;10.03;9.00;;;9.60;99.90;;;;;;4901398;29;21145;-74
2024/02/27 01:43:30;;;;;;;10.30;9.30;;;9.70;99.90;;;;;;4932932;29;20686;-74
2024/02/27 01:46:15;;;;;;;13.98;12.02;;;9.70;99.90;;;;;;4900855;29;20189;-74
2024/02/27 01:48:43;;;;;;;11.60;8.80;;;9.70;99.90;;;;;;4901301;29;20186;-74
2024/02/27 01:51:10;;;;;;;10.73;9.73;;;9.60;99.90;;;;;;4932319;29;20213;-74
2024/02/27 01:53:38;;;;;;;11.05;9.95;;;9.70;99.90;;;;;;4932615;29;20261;-74
2024/02/27 01:56:05;;;;;;;11.48;10.27;;;9.70;99.90;;;;;;4917446;29;20177;-74
2024/02/27 01:58:32;;;;;;;13.13;11.82;;;9.70;99.90;;;;;;4900918;29;20178;-74
2024/02/27 02:00:58;;;;;;;12.75;11.45;;;9.70;99.90;;;;;;4917514;29;20576;-74
2024/02/27 02:03:26;;;;;;;11.55;10.35;;;9.70;99.90;;;;;;4917769;29;20656;-74
2024/02/27 02:05:52;;;;;;;12.65;11.30;;;9.70;99.90;;;;;;4900090;29;20178;-74
2024/02/27 02:08:18;;;;;;;11.50;10.40;;;9.70;99.90;;;;;;4916528;29;20651;-74
2024/02/27 02:10:44;;;;;;;13.23;11.83;;;9.60;99.90;;;;;;4916066;29;20348;-75
2024/02/27 02:13:10;;;;;;;12.67;11.03;;;9.70;99.90;;;;;;4915977;29;20521;-75
2024/02/27 02:15:36;;;;;;;11.65;10.55;;;9.70;99.90;;;;;;4912336;29;20594;-75
2024/02/27 02:18:01;;;;;;;11.90;10.80;;;9.60;99.90;;;;;;4900263;29;20232;-75
2024/02/27 02:20:27;;;;;;;15.07;13.57;;;9.60;99.90;;;;;;4931813;29;20194;-75
2024/02/27 02:22:53;;;;;;;12.60;11.00;;;9.60;99.90;;;;;;4915973;29;20606;-75
2024/02/27 02:25:21;;;;;;;11.40;10.40;;;9.60;99.90;;;;;;4915121;29;20197;-75
2024/02/27 02:27:49;;;;;;;12.63;10.55;;;9.60;99.90;;;;;;4900373;29;20194;-75
2024/02/27 02:30:15;;;;;;;10.82;9.73;;;9.70;99.90;;;;;;4916848;29;20216;-75
2024/02/27 02:32:48;;;;;;;10.93;9.83;;;9.60;99.90;;;;;;4931985;29;20201;-75
2024/02/27 02:35:14;;;;;;;11.65;10.38;;;9.70;99.90;;;;;;4931225;29;20184;-75
2024/02/27 02:37:41;;;;;;;12.75;10.75;;;9.70;99.90;;;;;;4915989;29;20184;-75
2024/02/27 02:40:08;;;;;;;12.82;11.50;;;9.70;99.90;;;;;;4915359;29;20810;-74
2024/02/27 02:42:34;;;;;;;12.18;10.65;;;9.70;99.90;;;;;;4916349;29;20185;-74
2024/02/27 02:45:00;;;;;;;13.65;12.15;;;9.70;99.90;;;;;;4915024;29;20229;-74
2024/02/27 02:47:26;;;;;;;12.90;11.50;;;9.70;99.90;;;;;;4899200;29;20217;-75
2024/02/27 02:49:52;;;;;;;12.27;11.07;;;9.70;99.90;;;;;;4916744;29;20173;-74
2024/02/27 02:52:18;;;;;;;14.50;12.83;;;9.70;99.90;;;;;;4915472;29;20633;-74
2024/02/27 02:54:44;;;;;;;12.60;11.30;;;9.70;99.90;;;;;;4919977;29;20174;-74
2024/02/27 02:57:10;;;;;;;12.85;10.98;;;9.70;99.90;;;;;;4883467;29;20589;-74
2024/02/27 02:59:36;;;;;;;17.70;11.60;;;9.60;99.90;;;;;;4914852;29;20725;-74
2024/02/27 03:02:01;;;;;;;13.50;11.97;;;9.60;99.90;;;;;;4899454;29;20298;-73
2024/02/27 03:04:27;;;;;;;15.10;13.60;;;9.60;99.90;;;;;;4899163;29;20181;-74
2024/02/27 03:06:53;;;;;;;14.53;13.03;;;9.60;99.90;;;;;;4914734;29;20210;-74
2024/02/27 03:09:19;;;;;;;16.97;15.17;;;9.60;99.90;;;;;;4914938;29;20186;-74
2024/02/27 03:11:49;;;;;;;13.63;12.23;;;9.60;99.90;;;;;;4930709;29;20209;-74
2024/02/27 03:14:16;;;;;;;15.77;13.48;;;9.60;99.90;;;;;;4916512;29;20188;-74
2024/02/27 03:16:41;;;;;;;15.45;13.82;;;9.50;99.90;;;;;;4916046;29;20623;-74
2024/02/27 03:19:07;;;;;;;15.20;13.60;;;9.50;99.90;;;;;;4915305;29;20197;-75
2024/02/27 03:21:33;;;;;;;17.10;15.30;;;9.50;99.90;;;;;;4914865;29;20284;-73
2024/02/27 03:23:59;;;;;;;16.55;14.85;;;9.50;99.90;;;;;;4899355;29;20276;-73
2024/02/27 03:26:25;;;;;;;14.20;12.60;;;9.40;99.90;;;;;;4913918;29;20257;-74
2024/02/27 03:28:51;;;;;;;14.83;13.13;;;9.50;99.90;;;;;;4916477;29;20189;-74
2024/02/27 03:31:16;;;;;;;15.63;13.10;;;9.50;99.90;;;;;;4914322;29;20764;-74
2024/02/27 03:33:42;;;;;;;14.23;12.53;;;9.50;99.90;;;;;;4915013;29;20184;-74
2024/02/27 03:36:09;;;;;;;14.67;13.07;;;9.40;99.90;;;;;;4914212;29;20178;-74
2024/02/27 03:38:36;;;;;;;17.70;15.45;;;9.50;99.90;;;;;;4899117;29;20182;-75
2024/02/27 03:41:01;;;;;;;14.35;12.95;;;9.40;99.90;;;;;;4914404;29;20193;-74
2024/02/27 03:43:28;;;;;;;20.43;16.17;;;9.40;99.90;;;;;;4898975;29;20685;-75
2024/02/27 03:45:54;;;;;;;18.65;16.58;;;9.40;99.90;;;;;;4913924;29;20182;-74
2024/02/27 03:48:20;;;;;;;16.80;14.90;;;9.40;99.90;;;;;;4914534;29;20189;-74
2024/02/27 03:50:46;;;;;;;15.60;13.93;;;9.40;99.90;;;;;;4914262;29;20197;-75
2024/02/27 03:53:11;;;;;;;17.07;15.27;;;9.40;99.90;;;;;;4898784;29;20181;-75
2024/02/27 03:55:37;;;;;;;16.90;14.60;;;9.30;99.90;;;;;;4912853;29;20308;-74
2024/02/27 03:58:03;;;;;;;15.87;13.90;;;9.30;99.90;;;;;;4914309;29;20177;-74
2024/02/27 04:00:29;;;;;;;16.27;14.40;;;9.30;99.90;;;;;;4914152;29;20574;-74
2024/02/27 04:02:55;;;;;;;16.20;14.57;;;9.30;99.90;;;;;;4914273;29;20179;-74
2024/02/27 04:05:21;;;;;;;16.83;13.70;;;9.20;99.90;;;;;;4913613;29;20180;-74
2024/02/27 04:07:48;;;;;;;16.55;14.82;;;9.20;99.90;;;;;;4913841;29;20589;-75
2024/02/27 04:10:14;;;;;;;17.70;14.47;;;9.10;99.90;;;;;;4915112;29;20205;-74
2024/02/27 04:12:39;;;;;;;17.00;14.17;;;9.10;99.90;;;;;;4914006;29;20209;-75
2024/02/27 04:15:06;;;;;;;19.83;15.33;;;9.10;99.90;;;;;;4915447;29;20182;-75
2024/02/27 04:17:33;;;;;;;14.73;12.82;;;9.00;99.90;;;;;;4913316;29;20186;-75
2024/02/27 04:19:58;;;;;;;14.63;12.98;;;9.00;99.90;;;;;;4914039;29;20193;-75
2024/02/27 04:22:24;;;;;;;15.90;14.30;;;9.00;99.90;;;;;;4914079;29;20189;-75
2024/02/27 04:24:50;;;;;;;18.55;16.27;;;9.00;99.90;;;;;;4913891;29;21178;-75
2024/02/27 04:27:16;;;;;;;19.90;17.43;;;9.00;99.90;;;;;;4912838;29;20178;-75
2024/02/27 04:29:42;;;;;;;18.13;15.83;;;8.90;99.90;;;;;;4913552;29;20207;-75
2024/02/27 04:32:07;;;;;;;18.03;14.80;;;8.90;99.90;;;;;;4897855;29;20202;-75
2024/02/27 04:34:33;;;;;;;17.50;14.70;;;8.90;99.90;;;;;;4897689;29;20182;-76
2024/02/27 04:37:02;;;;;;;15.03;13.17;;;8.90;99.90;;;;;;4913225;29;20586;-75
2024/02/27 04:39:27;;;;;;;16.38;14.02;;;8.90;99.90;;;;;;4914332;29;20593;-75
2024/02/27 04:41:53;;;;;;;17.10;14.67;;;8.90;99.90;;;;;;4897836;29;20585;-75
2024/02/27 04:44:20;;;;;;;17.30;14.63;;;8.90;99.90;;;;;;4913762;29;20192;-75
2024/02/27 04:46:46;;;;;;;15.40;13.70;;;8.90;99.90;;;;;;4912610;29;20184;-75
2024/02/27 04:49:11;;;;;;;15.93;14.07;;;8.90;99.90;;;;;;4914704;29;20612;-75
2024/02/27 04:51:37;;;;;;;15.30;13.30;;;8.90;99.90;;;;;;4913099;29;20216;-75
2024/02/27 04:54:03;;;;;;;16.67;14.07;;;8.90;99.90;;;;;;4913460;29;20238;-75
2024/02/27 04:56:29;;;;;;;14.98;13.48;;;8.90;99.90;;;;;;4912166;29;20184;-76
2024/02/27 04:58:55;;;;;;;16.87;14.67;;;8.90;99.90;;;;;;4913405;29;20170;-76
2024/02/27 05:01:21;;;;;;;16.97;13.93;;;8.90;99.90;;;;;;4914160;29;20205;-76
2024/02/27 05:03:46;;;;;;;19.40;15.83;;;8.90;99.90;;;;;;4912621;29;20234;-75
2024/02/27 05:06:13;;;;;;;16.80;14.73;;;8.90;99.90;;;;;;4912865;29;20606;-76
2024/02/27 05:08:39;;;;;;;16.17;14.23;;;8.90;99.90;;;;;;4912824;29;20593;-76
2024/02/27 05:11:07;;;;;;;19.53;15.23;;;8.90;99.90;;;;;;4912551;29;20209;-75
2024/02/27 05:13:33;;;;;;;17.33;15.25;;;8.90;99.90;;;;;;4913229;29;20650;-73
2024/02/27 05:15:58;;;;;;;15.73;14.07;;;8.90;99.90;;;;;;4911455;29;20189;-74
2024/02/27 05:18:24;;;;;;;19.33;17.10;;;9.00;99.90;;;;;;4896455;29;20178;-76
2024/02/27 05:20:50;;;;;;;19.70;15.83;;;8.90;99.90;;;;;;4912400;29;20205;-74
2024/02/27 05:23:15;;;;;;;17.20;14.53;;;8.90;99.90;;;;;;4912102;29;20180;-75
2024/02/27 05:25:41;;;;;;;16.70;14.83;;;8.90;99.90;;;;;;4911910;29;20205;-74
2024/02/27 05:28:07;;;;;;;16.23;14.47;;;8.90;99.90;;;;;;4911686;29;20559;-74
2024/02/27 05:30:33;;;;;;;17.60;15.77;;;8.90;99.90;;;;;;4916183;29;20978;-76
2024/02/27 05:32:58;;;;;;;19.33;15.80;;;8.90;99.90;;;;;;4894812;29;20252;-74
2024/02/27 05:35:24;;;;;;;20.07;15.47;;;8.90;99.90;;;;;;4894756;29;20726;-75
2024/02/27 05:37:50;;;;;;;17.70;15.03;;;8.80;99.90;;;;;;4912360;29;20184;-74
2024/02/27 05:40:17;;;;;;;16.65;14.82;;;8.80;99.90;;;;;;4897270;29;20198;-74
2024/02/27 05:42:43;;;;;;;15.67;13.97;;;8.80;99.90;;;;;;4912891;29;20184;-74
2024/02/27 05:45:09;;;;;;;16.77;14.97;;;8.80;99.90;;;;;;4912924;29;21508;-74
2024/02/27 05:47:35;;;;;;;22.10;16.73;;;8.80;99.90;;;;;;4927899;29;20189;-74
2024/02/27 05:50:02;;;;;;;16.70;14.90;;;8.80;99.90;;;;;;4881504;29;20320;-74
2024/02/27 05:52:28;;;;;;;16.52;14.52;;;8.70;99.90;;;;;;4912603;29;20201;-75
2024/02/27 05:54:54;;;;;;;17.27;14.80;;;8.70;99.90;;;;;;4914224;29;20174;-75
2024/02/27 05:57:20;;;;;;;19.70;16.97;;;8.70;99.90;;;;;;4911630;29;20637;-74
2024/02/27 05:59:46;;;;;;;21.80;19.02;;;8.70;99.90;;;;;;4913440;29;20194;-75
2024/02/27 06:02:12;;;;;;;19.10;15.50;;;8.70;99.90;;;;;;4897081;29;20269;-74
2024/02/27 06:04:38;;;;;;;20.60;17.10;;;8.60;99.90;;;;;;4912804;29;20272;-76
2024/02/27 06:07:03;;;;;;;18.63;16.63;;;8.60;99.90;;;;;;4912694;29;20602;-76
2024/02/27 06:09:29;;;;;;;19.47;16.10;;;8.60;99.90;;;;;;4912346;29;20174;-77
2024/02/27 06:11:55;;;;;;;19.70;15.30;;;8.60;99.90;;;;;;4896878;29;20613;-76
2024/02/27 06:14:20;;;;;;;17.53;14.77;;;8.60;99.90;;;;;;4912735;29;20173;-76
2024/02/27 06:16:46;;;;;;;19.60;15.70;;;8.60;99.90;;;;;;4896285;29;20182;-76
2024/02/27 06:19:12;;;;;;;20.70;17.23;;;8.60;99.90;;;;;;4913972;29;20181;-74
2024/02/27 06:24:22;;;;;;;20.88;17.25;;;8.50;99.90;;;;;;4916151;29;20971;-75
2024/02/27 06:26:48;;;;;;;18.53;15.17;;;8.50;99.90;;;;;;4916428;29;20277;-75
2024/02/27 06:29:14;;;;;;;18.77;16.70;;;8.50;99.90;;;;;;4915800;29;20586;-75
2024/02/27 06:31:40;;;;;;;19.20;16.90;;;8.50;99.90;;;;;;4915308;29;20649;-75
2024/02/27 06:34:06;;;;;;;19.00;16.00;;;8.50;99.90;;;;;;4915894;29;20180;-75
2024/02/27 06:36:32;;;;;;;20.13;16.67;;;8.60;99.90;;;;;;4915056;29;20590;-75
2024/02/27 06:38:59;;;;;;;24.08;18.70;;;8.50;99.90;;;;;;4900081;29;20312;-76
2024/02/27 06:41:24;;;;;;;18.58;16.50;;;8.50;99.90;;;;;;4899734;29;20567;-75
2024/02/27 06:43:50;;;;;;;20.80;17.17;;;8.60;99.90;;;;;;4899729;29;20213;-75
2024/02/27 06:46:16;;;;;;;18.17;16.13;;;8.60;99.90;;;;;;4920856;29;20186;-82
2024/02/27 06:48:42;;;;;;;22.90;17.20;;;8.60;99.90;;;;;;4929852;29;20352;-82
2024/02/27 06:51:08;;;;;;;18.92;14.98;;;8.60;99.90;;;;;;4917409;29;20382;-81
2024/02/27 06:53:39;;;;;;;22.10;17.30;;;8.60;99.90;;;;;;4921360;29;20532;-80
2024/02/27 06:56:07;;;;;;;18.50;15.68;;;8.70;99.90;;;;;;4930719;29;20237;-82
2024/02/27 06:58:33;;;;;;;18.98;16.30;;;8.70;99.90;;;;;;4933265;29;20264;-75
2024/02/27 07:00:59;;;;;;;18.73;15.67;;;8.70;99.90;;;;;;4915857;29;20633;-76
2024/02/27 07:03:28;;;;;;;19.50;16.20;;;8.70;99.90;;;;;;4911252;29;20253;-80
2024/02/27 07:05:53;;;;;;;21.07;16.37;;;8.80;99.90;;;;;;4908909;29;20209;-76
2024/02/27 07:08:19;;;;;;;22.07;19.00;;;8.80;99.90;;;;;;4915704;29;20209;-77
2024/02/27 07:10:45;;;;;;;20.93;17.30;;;8.90;99.90;;;;;;4915166;29;20208;-76
2024/02/27 07:13:12;;;;;;;20.00;17.03;;;8.90;99.90;;;;;;4915243;29;20621;-75
2024/02/27 07:15:38;;;;;;;19.55;17.33;;;9.00;99.90;;;;;;4916429;29;20621;-74
2024/02/27 07:18:04;;;;;;;20.73;17.60;;;9.00;99.90;;;;;;4923551;29;20170;-74
2024/02/27 07:20:31;;;;;;;21.97;18.70;;;9.10;99.90;;;;;;4893569;29;20289;-74
2024/02/27 07:22:59;;;;;;;19.90;16.40;;;9.10;99.90;;;;;;4908059;29;20684;-74
2024/02/27 07:25:25;;;;;;;18.95;16.73;;;9.20;99.90;;;;;;4900416;29;20185;-74
2024/02/27 07:27:51;;;;;;;25.65;19.98;;;9.20;99.90;;;;;;4920434;29;20185;-74
2024/02/27 07:30:17;;;;;;;22.13;18.70;;;9.30;99.90;;;;;;4920252;29;20244;-74
2024/02/27 07:32:44;;;;;;;20.67;16.98;;;9.30;99.90;;;;;;4921467;29;20675;-75
2024/02/27 07:35:10;;;;;;;20.08;16.98;;;9.40;99.90;;;;;;4907321;29;20193;-75
2024/02/27 07:37:36;;;;;;;19.63;17.20;;;9.40;99.90;;;;;;4918469;29;20174;-75
2024/02/27 07:40:02;;;;;;;20.60;18.40;;;9.40;99.90;;;;;;4924529;29;20590;-75
2024/02/27 07:42:28;;;;;;;19.35;16.58;;;9.50;99.90;;;;;;4933502;29;20209;-76
2024/02/27 07:44:54;;;;;;;18.85;16.23;;;9.60;99.90;;;;;;4918258;29;20186;-75
2024/02/27 07:47:21;;;;;;;19.67;17.03;;;9.60;99.90;;;;;;4900407;29;20188;-75
2024/02/27 07:49:47;;;;;;;18.77;16.15;;;9.70;99.90;;;;;;4899187;29;20600;-74
2024/02/27 07:52:14;;;;;;;19.23;17.10;;;9.70;99.90;;;;;;4915558;29;20239;-75
2024/02/27 07:54:41;;;;;;;21.63;17.73;;;9.80;99.90;;;;;;4899278;29;20613;-75
2024/02/27 07:57:08;;;;;;;20.08;17.55;;;9.90;99.90;;;;;;4915415;29;20190;-75
2024/02/27 07:59:37;;;;;;;20.90;16.52;;;10.00;99.90;;;;;;4910113;29;20668;-83
2024/02/27 08:02:03;;;;;;;20.50;18.30;;;10.10;99.90;;;;;;4905869;29;20204;-75
2024/02/27 08:04:30;;;;;;;22.75;18.38;;;10.20;99.90;;;;;;4907995;29;20549;-75
2024/02/27 08:06:56;;;;;;;20.88;17.77;;;10.30;99.90;;;;;;4914655;29;20190;-74
2024/02/27 08:09:22;;;;;;;20.10;17.20;;;10.40;99.90;;;;;;4916453;29;20551;-81
2024/02/27 08:11:47;;;;;;;19.20;16.87;;;10.50;99.90;;;;;;4908945;29;20700;-76
2024/02/27 08:14:16;;;;;;;19.40;17.08;;;10.60;99.90;;;;;;4930685;29;20635;-75
2024/02/27 08:16:41;;;;;;;20.65;17.30;;;10.70;99.90;;;;;;4914001;29;20278;-75
2024/02/27 08:19:07;;;;;;;19.50;17.37;;;10.70;99.90;;;;;;4914062;29;20608;-76
2024/02/27 08:21:33;;;;;;;17.17;15.40;;;10.80;99.90;;;;;;4913383;29;20688;-74
2024/02/27 08:24:03;;;;;;;20.30;18.13;;;10.90;99.90;;;;;;4906762;29;20495;-75
2024/02/27 08:26:29;;;;;;;21.30;19.10;;;11.00;99.90;;;;;;4898412;29;20197;-74
2024/02/27 08:28:57;;;;;;;18.85;16.15;;;11.10;99.90;;;;;;4898684;29;20181;-75
2024/02/27 08:31:23;;;;;;;17.90;16.00;;;11.30;99.90;;;;;;4912972;29;20297;-75
2024/02/27 08:33:49;;;;;;;20.30;17.25;;;11.40;99.90;;;;;;4912074;29;20174;-75
2024/02/27 08:36:15;;;;;;;17.53;15.73;;;11.60;99.90;;;;;;4892100;29;20170;-75
2024/02/27 08:38:44;;;;;;;20.50;18.40;;;11.70;99.90;;;;;;4914116;29;20590;-75
2024/02/27 08:41:10;;;;;;;20.95;17.48;;;11.90;99.90;;;;;;4906798;29;20197;-75
2024/02/27 08:43:38;;;;;;;22.25;19.90;;;12.10;99.90;;;;;;4898062;29;20189;-75
2024/02/27 08:46:04;;;;;;;19.13;17.20;;;12.30;99.90;;;;;;4913069;29;20178;-75
2024/02/27 08:48:29;;;;;;;17.70;15.90;;;12.60;99.90;;;;;;4913565;29;20671;-74
2024/02/27 08:50:55;;;;;;;18.27;16.27;;;12.80;99.90;;;;;;4906513;29;20209;-74
2024/02/27 08:53:22;;;;;;;17.27;15.57;;;13.10;99.90;;;;;;4913633;29;20166;-74
2024/02/27 08:55:47;;;;;;;18.33;16.43;;;13.30;99.90;;;;;;4913074;29;20590;-75
2024/02/27 08:58:13;;;;;;;18.00;16.20;;;13.60;99.90;;;;;;4898085;29;20709;-76
2024/02/27 09:00:39;;;;;;;18.90;17.03;;;13.90;99.90;;;;;;4897127;29;20193;-74
2024/02/27 09:03:06;;;;;;;18.10;16.20;;;14.20;99.90;;;;;;4908106;29;20213;-74
2024/02/27 09:05:31;;;;;;;18.33;16.40;;;14.60;99.90;;;;;;4908372;29;20669;-73
2024/02/27 09:07:57;;;;;;;16.83;15.10;;;14.80;99.90;;;;;;4918493;29;21332;-74
2024/02/27 09:10:23;;;;;;;18.80;16.90;;;14.90;99.90;;;;;;4902108;29;20201;-74
2024/02/27 09:12:49;;;;;;;17.77;16.10;;;15.10;99.90;;;;;;4934259;29;20260;-74
2024/02/27 09:15:16;;;;;;;17.97;13.90;;;15.20;99.90;;;;;;4903234;29;20609;-73
2024/02/27 09:17:42;;;;;;;16.87;15.07;;;15.20;99.90;;;;;;4915194;29;20185;-73
2024/02/27 09:20:08;;;;;;;17.73;15.90;;;15.30;99.90;;;;;;4913768;29;20971;-73
2024/02/27 09:22:34;;;;;;;17.00;15.20;;;15.40;99.90;;;;;;4913595;29;20527;-73
2024/02/27 09:24:59;;;;;;;18.13;16.27;;;15.50;99.90;;;;;;4898146;29;20601;-75
2024/02/27 09:27:25;;;;;;;16.63;15.10;;;15.50;99.90;;;;;;4914715;29;20581;-76
2024/02/27 09:29:51;;;;;;;15.73;14.23;;;15.40;99.90;;;;;;4913169;29;20731;-75
2024/02/27 09:32:20;;;;;;;18.37;16.00;;;15.40;99.90;;;;;;4913401;29;20205;-75
2024/02/27 09:34:47;;;;;;;17.63;15.87;;;15.20;99.90;;;;;;4915381;29;20698;-75
2024/02/27 09:37:13;;;;;;;18.20;16.40;;;15.10;99.90;;;;;;4916012;29;21251;-75
2024/02/27 09:39:39;;;;;;;16.63;14.93;;;14.90;99.90;;;;;;4930573;29;20636;-75
2024/02/27 09:42:10;;;;;;;16.33;14.63;;;14.80;99.90;;;;;;4913236;29;20654;-75
2024/02/27 09:44:40;;;;;;;16.90;14.40;;;14.70;99.90;;;;;;4916464;29;20813;-77
2024/02/27 09:47:07;;;;;;;15.60;14.00;;;14.80;99.90;;;;;;4907434;29;20597;-76
2024/02/27 09:49:39;;;;;;;14.13;12.80;;;14.90;99.90;;;;;;4915574;29;20668;-76
2024/02/27 09:52:25;;;;;;;16.33;13.67;;;15.00;99.90;;;;;;4915468;29;21035;-76
2024/02/27 09:54:51;;;;;;;15.67;14.07;;;15.00;99.90;;;;;;4919948;29;20950;-76
2024/02/27 09:57:17;;;;;;;16.10;14.57;;;15.10;99.90;;;;;;4901135;29;20712;-75
2024/02/27 09:59:43;;;;;;;17.30;14.17;;;15.10;99.90;;;;;;4900730;29;21191;-75
2024/02/27 10:02:12;;;;;;;17.40;14.17;;;15.00;99.90;;;;;;4916441;29;20201;-76
2024/02/27 10:04:39;;;;;;;15.80;14.20;;;15.00;99.90;;;;;;4918538;29;21379;-76
2024/02/27 10:07:06;;;;;;;16.20;14.60;;;15.00;99.90;;;;;;4916768;29;20604;-76
2024/02/27 10:09:42;;;;;;;14.80;13.37;;;15.10;99.90;;;;;;4928091;29;20593;-75
2024/02/27 10:12:10;;;;;;;12.27;10.97;;;15.20;99.90;;;;;;4900368;29;21309;-75
2024/02/27 10:14:37;;;;;;;14.70;12.60;;;15.40;99.90;;;;;;4916609;29;20593;-75
2024/02/27 10:17:05;;;;;;;13.60;12.20;;;15.50;99.90;;;;;;4931156;23;20588;-75
2024/02/27 10:19:32;;;;;;;15.57;13.97;;;15.80;99.90;;;;;;4900570;29;20594;-75
2024/02/27 10:22:00;;;;;;;14.37;12.87;;;16.00;99.90;;;;;;4915439;29;20605;-75
2024/02/27 10:24:28;;;;;;;15.33;13.73;;;16.30;99.90;;;;;;4916202;29;20604;-75
2024/02/27 10:26:55;;;;;;;15.80;14.30;;;16.50;99.90;;;;;;4913758;29;20608;-75
2024/02/27 10:29:22;;;;;;;16.90;15.20;;;16.80;99.90;;;;;;4881936;29;21183;-75
2024/02/27 10:31:50;;;;;;;17.87;16.13;;;17.00;99.90;;;;;;4881582;29;20721;-76
2024/02/27 10:34:16;;;;;;;15.60;14.00;;;17.20;99.90;;;;;;4897236;29;21183;-75
2024/02/27 10:36:42;;;;;;;16.20;14.50;;;17.40;99.90;;;;;;4896971;29;20615;-75
2024/02/27 10:39:09;;;;;;;15.17;13.67;;;17.70;99.90;;;;;;4883048;29;20662;-75
2024/02/27 10:41:41;;;;;;;12.40;11.20;;;18.00;99.90;;;;;;4896905;29;20746;-75
2024/02/27 10:44:08;;;;;;;12.70;11.50;;;18.40;99.90;;;;;;4898168;29;20586;-75
2024/02/27 10:46:37;;;;;;;14.20;12.73;;;18.90;99.90;;;;;;4899595;29;20654;-74
2024/02/27 10:49:03;;;;;;;12.60;11.47;;;19.20;99.90;;;;;;4897100;29;20630;-75
2024/02/27 10:51:30;;;;;;;12.63;11.40;;;19.40;99.90;;;;;;4896789;29;20666;-75
2024/02/27 10:53:57;;;;;;;13.30;12.00;;;19.50;99.90;;;;;;4904376;29;20587;-75
2024/02/27 10:56:23;;;;;;;11.53;10.50;;;19.40;99.90;;;;;;4896196;29;20949;-75
2024/02/27 10:58:54;;;;;;;13.77;12.47;;;19.30;99.90;;;;;;4881177;29;20630;-75
2024/02/27 11:01:21;;;;;;;13.90;12.67;;;19.10;99.90;;;;;;4896928;29;20633;-76
2024/02/27 11:03:51;;;;;;;12.07;10.87;;;18.80;99.90;;;;;;4896650;29;20622;-76
2024/02/27 11:06:21;;;;;;;15.30;13.80;;;18.50;99.90;;;;;;4880500;29;20595;-75
2024/02/27 11:08:51;;;;;;;11.73;10.53;;;18.20;99.90;;;;;;4896607;29;20668;-75
2024/02/27 11:11:17;;;;;;;13.80;12.20;;;18.00;99.90;;;;;;4880866;29;20638;-75
2024/02/27 11:13:47;;;;;;;13.13;11.83;;;17.80;99.90;;;;;;4896612;29;21024;-75
2024/02/27 11:16:16;;;;;;;12.83;11.53;;;17.50;99.90;;;;;;4896221;29;20927;-75
2024/02/27 11:18:47;;;;;;;13.33;12.03;;;17.20;99.90;;;;;;4896472;29;20672;-75
2024/02/27 11:21:13;;;;;;;12.43;11.23;;;16.80;99.90;;;;;;4890043;29;20694;-75
2024/02/27 11:23:39;;;;;;;14.57;13.17;;;16.50;99.90;;;;;;4893276;29;20690;-76
2024/02/27 11:26:06;;;;;;;13.03;11.70;;;16.20;99.90;;;;;;4896044;29;20684;-75
2024/02/27 11:28:33;;;;;;;13.67;12.27;;;16.00;99.90;;;;;;4894229;29;20931;-75
2024/02/27 11:30:59;;;;;;;12.77;11.47;;;15.90;99.90;;;;;;4895924;29;20599;-75
2024/02/27 11:33:25;;;;;;;12.13;10.93;;;15.80;99.90;;;;;;4896047;29;20602;-75
2024/02/27 11:35:52;;;;;;;12.93;11.70;;;15.70;99.90;;;;;;4895015;29;20973;-76
2024/02/27 11:38:19;;;;;;;13.50;12.13;;;15.80;99.90;;;;;;4879765;29;20546;-75
2024/02/27 11:40:49;;;;;;;14.10;12.77;;;15.90;99.90;;;;;;4897699;29;20591;-76
2024/02/27 11:43:15;;;;;;;13.10;11.90;;;16.20;99.90;;;;;;4888546;29;20587;-76
2024/02/27 11:45:41;;;;;;;12.80;11.40;;;16.60;99.90;;;;;;4895473;29;20598;-76
2024/02/27 11:48:07;;;;;;;14.97;13.47;;;16.70;99.90;;;;;;4895710;29;20634;-76
2024/02/27 11:50:39;;;;;;;13.47;12.17;;;16.80;99.90;;;;;;4895695;29;20587;-75
2024/02/27 11:53:16;;;;;;;14.73;12.50;;;16.80;99.90;;;;;;4895907;29;20206;-75
2024/02/27 11:55:43;;;;;;;15.70;14.20;;;16.80;99.90;;;;;;4897338;29;20594;-75
2024/02/27 11:58:27;;;;;;;13.07;11.77;;;16.60;99.90;;;;;;4882791;29;20663;-75
2024/02/27 12:00:53;;;;;;;15.03;13.53;;;16.50;99.90;;;;;;4896715;29;21016;-75
2024/02/27 12:03:19;;;;;;;15.47;13.87;;;16.40;99.90;;;;;;4889022;29;20178;-74
2024/02/27 12:05:49;;;;;;;16.00;14.40;;;16.30;99.90;;;;;;4907519;29;20938;-74
2024/02/27 12:08:16;;;;;;;15.57;13.53;;;16.20;99.90;;;;;;4919255;29;20629;-75
2024/02/27 12:10:43;;;;;;;16.47;14.87;;;16.20;99.90;;;;;;4895561;29;20646;-75
2024/02/27 12:13:09;;;;;;;17.10;15.40;;;16.10;99.90;;;;;;4895630;29;20667;-75
2024/02/27 12:15:36;;;;;;;15.53;13.93;;;15.90;99.90;;;;;;4895334;29;20605;-74
2024/02/27 12:18:01;;;;;;;16.27;14.57;;;15.70;99.90;;;;;;4896917;29;20218;-75
2024/02/27 12:20:27;;;;;;;16.77;14.97;;;15.50;99.90;;;;;;4895487;29;20667;-74
2024/02/27 12:22:53;;;;;;;15.90;14.40;;;15.40;99.90;;;;;;4894860;29;20743;-75
2024/02/27 12:25:19;;;;;;;16.03;14.43;;;15.30;99.90;;;;;;4888351;29;20188;-75
2024/02/27 12:27:46;;;;;;;15.13;13.60;;;15.30;99.90;;;;;;4895051;29;20626;-76
2024/02/27 12:30:12;;;;;;;14.90;12.80;;;15.30;99.90;;;;;;4895158;29;20179;-75
2024/02/27 12:32:42;;;;;;;15.93;14.33;;;15.40;99.90;;;;;;4896403;29;20995;-75
2024/02/27 12:35:11;;;;;;;14.63;13.13;;;15.50;99.90;;;;;;4896362;29;20575;-76